sensor_id;sensor_type;location;lat;lon;timestamp;temperature;humidity
35043;DHT22;21230;51.170;17.024;2023-05-07T00:02:06;8.10;99.90
35043;DHT22;21230;51.170;17.024;2023-05-07T00:04:32;8.10;99.90
35043;DHT22;21230;51.170;17.024;2023-05-07T00:07:02;8.00;99.90
35043;DHT22;21230;51.170;17.024;2023-05-07T00:09:28;8.10;99.90
35043;DHT22;21230;51.170;17.024;2023-05-07T00:11:53;8.10;99.90
35043;DHT22;21230;51.170;17.024;2023-05-07T00:14:19;8.00;99.90
35043;DHT22;21230;51.170;17.024;2023-05-07T00:16:45;8.00;99.90
35043;DHT22;21230;51.170;17.024;2023-05-07T00:19:10;8.00;99.90
35043;DHT22;21230;51.170;17.024;2023-05-07T00:21:36;8.00;99.90
35043;DHT22;21230;51.170;17.024;2023-05-07T00:24:02;8.00;99.90
35043;DHT22;21230;51.170;17.024;2023-05-07T00:26:27;8.00;99.90
35043;DHT22;21230;51.170;17.024;2023-05-07T00:28:53;8.00;99.90
35043;DHT22;21230;51.170;17.024;2023-05-07T00:31:19;8.10;99.90
35043;DHT22;21230;51.170;17.024;2023-05-07T00:33:44;8.00;99.90
35043;DHT22;21230;51.170;17.024;2023-05-07T00:36:10;8.00;99.90
35043;DHT22;21230;51.170;17.024;2023-05-07T00:38:35;8.00;99.90
35043;DHT22;21230;51.170;17.024;2023-05-07T00:41:01;8.00;99.90
35043;DHT22;21230;51.170;17.024;2023-05-07T00:43:27;8.00;99.90
35043;DHT22;21230;51.170;17.024;2023-05-07T00:45:54;8.00;99.90
35043;DHT22;21230;51.170;17.024;2023-05-07T00:48:19;8.00;99.90
35043;DHT22;21230;51.170;17.024;2023-05-07T00:50:45;8.00;99.90
35043;DHT22;21230;51.170;17.024;2023-05-07T00:53:12;8.00;99.90
35043;DHT22;21230;51.170;17.024;2023-05-07T00:55:38;8.00;99.90
35043;DHT22;21230;51.170;17.024;2023-05-07T00:58:04;8.00;99.90
35043;DHT22;21230;51.170;17.024;2023-05-07T01:00:29;7.90;99.90
35043;DHT22;21230;51.170;17.024;2023-05-07T01:02:55;8.00;99.90
35043;DHT22;21230;51.170;17.024;2023-05-07T01:05:22;8.00;99.90
35043;DHT22;21230;51.170;17.024;2023-05-07T01:07:51;8.00;99.90
35043;DHT22;21230;51.170;17.024;2023-05-07T01:10:17;8.00;99.90
35043;DHT22;21230;51.170;17.024;2023-05-07T01:12:43;8.00;99.90
35043;DHT22;21230;51.170;17.024;2023-05-07T01:15:10;8.00;99.90
35043;DHT22;21230;51.170;17.024;2023-05-07T01:17:36;8.00;99.90
35043;DHT22;21230;51.170;17.024;2023-05-07T01:20:02;8.00;99.90
35043;DHT22;21230;51.170;17.024;2023-05-07T01:22:33;8.00;99.90
35043;DHT22;21230;51.170;17.024;2023-05-07T01:24:59;8.00;99.90
35043;DHT22;21230;51.170;17.024;2023-05-07T01:27:27;7.90;99.90
35043;DHT22;21230;51.170;17.024;2023-05-07T01:29:55;7.90;99.90
35043;DHT22;21230;51.170;17.024;2023-05-07T01:34:52;7.90;99.90
35043;DHT22;21230;51.170;17.024;2023-05-07T01:37:19;7.90;99.90
35043;DHT22;21230;51.170;17.024;2023-05-07T01:39:45;7.90;99.90
35043;DHT22;21230;51.170;17.024;2023-05-07T01:42:11;7.90;99.90
35043;DHT22;21230;51.170;17.024;2023-05-07T01:44:37;7.90;99.90
35043;DHT22;21230;51.170;17.024;2023-05-07T01:47:03;7.90;99.90
35043;DHT22;21230;51.170;17.024;2023-05-07T01:49:28;7.90;99.90
35043;DHT22;21230;51.170;17.024;2023-05-07T01:51:54;7.80;99.90
35043;DHT22;21230;51.170;17.024;2023-05-07T01:54:30;7.90;99.90
35043;DHT22;21230;51.170;17.024;2023-05-07T01:56:56;7.90;99.90
35043;DHT22;21230;51.170;17.024;2023-05-07T01:59:22;7.90;99.90
35043;DHT22;21230;51.170;17.024;2023-05-07T02:01:51;7.80;99.90
35043;DHT22;21230;51.170;17.024;2023-05-07T02:04:17;7.90;99.90
35043;DHT22;21230;51.170;17.024;2023-05-07T02:06:43;7.90;99.90
35043;DHT22;21230;51.170;17.024;2023-05-07T02:09:08;7.80;99.90
35043;DHT22;21230;51.170;17.024;2023-05-07T02:11:34;7.90;99.90
35043;DHT22;21230;51.170;17.024;2023-05-07T02:14:00;7.90;99.90
35043;DHT22;21230;51.170;17.024;2023-05-07T02:16:25;7.90;99.90
35043;DHT22;21230;51.170;17.024;2023-05-07T02:18:51;7.90;99.90
35043;DHT22;21230;51.170;17.024;2023-05-07T02:21:17;7.80;99.90
35043;DHT22;21230;51.170;17.024;2023-05-07T02:23:43;7.90;99.90
35043;DHT22;21230;51.170;17.024;2023-05-07T02:26:08;7.80;99.90
35043;DHT22;21230;51.170;17.024;2023-05-07T02:28:34;7.80;99.90
35043;DHT22;21230;51.170;17.024;2023-05-07T02:31:03;7.80;99.90
35043;DHT22;21230;51.170;17.024;2023-05-07T02:33:28;7.70;99.90
35043;DHT22;21230;51.170;17.024;2023-05-07T02:35:54;7.70;99.90
35043;DHT22;21230;51.170;17.024;2023-05-07T02:38:20;7.70;99.90
35043;DHT22;21230;51.170;17.024;2023-05-07T02:40:46;7.70;99.90
35043;DHT22;21230;51.170;17.024;2023-05-07T02:43:11;7.70;99.90
35043;DHT22;21230;51.170;17.024;2023-05-07T02:45:37;7.70;99.90
35043;DHT22;21230;51.170;17.024;2023-05-07T02:48:03;7.70;99.90
35043;DHT22;21230;51.170;17.024;2023-05-07T02:50:29;7.70;99.90
35043;DHT22;21230;51.170;17.024;2023-05-07T02:52:54;7.70;99.90
35043;DHT22;21230;51.170;17.024;2023-05-07T02:55:20;7.70;99.90
35043;DHT22;21230;51.170;17.024;2023-05-07T02:57:46;7.70;99.90
35043;DHT22;21230;51.170;17.024;2023-05-07T03:00:13;7.60;99.90
35043;DHT22;21230;51.170;17.024;2023-05-07T03:02:39;7.70;99.90
35043;DHT22;21230;51.170;17.024;2023-05-07T03:05:05;7.60;99.90
35043;DHT22;21230;51.170;17.024;2023-05-07T03:07:30;7.60;99.90
35043;DHT22;21230;51.170;17.024;2023-05-07T03:09:56;7.60;99.90
35043;DHT22;21230;51.170;17.024;2023-05-07T03:12:22;7.60;99.90
35043;DHT22;21230;51.170;17.024;2023-05-07T03:14:48;7.60;99.90
35043;DHT22;21230;51.170;17.024;2023-05-07T03:17:13;7.70;99.90
35043;DHT22;21230;51.170;17.024;2023-05-07T03:19:39;7.60;99.90
35043;DHT22;21230;51.170;17.024;2023-05-07T03:22:05;7.60;99.90
35043;DHT22;21230;51.170;17.024;2023-05-07T03:24:30;7.60;99.90
35043;DHT22;21230;51.170;17.024;2023-05-07T03:26:56;7.60;99.90
35043;DHT22;21230;51.170;17.024;2023-05-07T03:29:23;7.60;99.90
35043;DHT22;21230;51.170;17.024;2023-05-07T03:31:49;7.60;99.90
35043;DHT22;21230;51.170;17.024;2023-05-07T03:34:14;7.60;99.90
35043;DHT22;21230;51.170;17.024;2023-05-07T03:36:42;7.60;99.90
35043;DHT22;21230;51.170;17.024;2023-05-07T03:39:08;7.60;99.90
35043;DHT22;21230;51.170;17.024;2023-05-07T03:41:33;7.60;99.90
35043;DHT22;21230;51.170;17.024;2023-05-07T03:43:59;7.60;99.90
35043;DHT22;21230;51.170;17.024;2023-05-07T03:46:24;7.70;99.90
35043;DHT22;21230;51.170;17.024;2023-05-07T03:48:51;7.70;99.90
35043;DHT22;21230;51.170;17.024;2023-05-07T03:51:17;7.70;99.90
35043;DHT22;21230;51.170;17.024;2023-05-07T03:53:43;7.60;99.90
35043;DHT22;21230;51.170;17.024;2023-05-07T03:56:08;7.50;99.90
35043;DHT22;21230;51.170;17.024;2023-05-07T03:58:34;7.40;99.90
35043;DHT22;21230;51.170;17.024;2023-05-07T04:01:00;7.40;99.90
35043;DHT22;21230;51.170;17.024;2023-05-07T04:03:26;7.40;99.90
35043;DHT22;21230;51.170;17.024;2023-05-07T04:05:52;7.40;99.90
35043;DHT22;21230;51.170;17.024;2023-05-07T04:08:17;7.30;99.90
35043;DHT22;21230;51.170;17.024;2023-05-07T04:10:43;7.30;99.90
35043;DHT22;21230;51.170;17.024;2023-05-07T04:13:09;7.30;99.90
35043;DHT22;21230;51.170;17.024;2023-05-07T04:15:35;7.30;99.90
35043;DHT22;21230;51.170;17.024;2023-05-07T04:18:00;7.30;99.90
35043;DHT22;21230;51.170;17.024;2023-05-07T04:20:26;7.30;99.90
35043;DHT22;21230;51.170;17.024;2023-05-07T04:22:54;7.30;99.90
35043;DHT22;21230;51.170;17.024;2023-05-07T04:25:20;7.30;99.90
35043;DHT22;21230;51.170;17.024;2023-05-07T04:27:47;7.30;99.90
35043;DHT22;21230;51.170;17.024;2023-05-07T04:30:14;7.30;99.90
35043;DHT22;21230;51.170;17.024;2023-05-07T04:32:39;7.40;99.90
35043;DHT22;21230;51.170;17.024;2023-05-07T04:35:05;7.40;99.90
35043;DHT22;21230;51.170;17.024;2023-05-07T04:37:34;7.40;99.90
35043;DHT22;21230;51.170;17.024;2023-05-07T04:40:00;7.50;99.90
35043;DHT22;21230;51.170;17.024;2023-05-07T04:42:28;7.50;99.90
35043;DHT22;21230;51.170;17.024;2023-05-07T04:44:54;7.50;99.90
35043;DHT22;21230;51.170;17.024;2023-05-07T04:47:20;7.60;99.90
35043;DHT22;21230;51.170;17.024;2023-05-07T04:49:46;7.60;99.90
35043;DHT22;21230;51.170;17.024;2023-05-07T04:52:11;7.60;99.90
35043;DHT22;21230;51.170;17.024;2023-05-07T04:54:37;7.70;99.90
35043;DHT22;21230;51.170;17.024;2023-05-07T04:57:03;7.70;99.90
35043;DHT22;21230;51.170;17.024;2023-05-07T04:59:29;7.80;99.90
35043;DHT22;21230;51.170;17.024;2023-05-07T05:01:55;7.80;99.90
35043;DHT22;21230;51.170;17.024;2023-05-07T05:04:20;7.80;99.90
35043;DHT22;21230;51.170;17.024;2023-05-07T05:06:46;7.80;99.90
35043;DHT22;21230;51.170;17.024;2023-05-07T05:09:12;7.80;99.90
35043;DHT22;21230;51.170;17.024;2023-05-07T05:11:38;7.80;99.90
35043;DHT22;21230;51.170;17.024;2023-05-07T05:14:04;7.70;99.90
35043;DHT22;21230;51.170;17.024;2023-05-07T05:16:32;7.70;99.90
35043;DHT22;21230;51.170;17.024;2023-05-07T05:19:01;7.70;99.90
35043;DHT22;21230;51.170;17.024;2023-05-07T05:21:27;7.60;99.90
35043;DHT22;21230;51.170;17.024;2023-05-07T05:23:54;7.60;99.90
35043;DHT22;21230;51.170;17.024;2023-05-07T05:26:20;7.60;99.90
35043;DHT22;21230;51.170;17.024;2023-05-07T05:28:46;7.60;99.90
35043;DHT22;21230;51.170;17.024;2023-05-07T05:31:12;7.60;99.90
35043;DHT22;21230;51.170;17.024;2023-05-07T05:33:40;7.60;99.90
35043;DHT22;21230;51.170;17.024;2023-05-07T05:36:09;7.70;99.90
35043;DHT22;21230;51.170;17.024;2023-05-07T05:38:35;7.60;99.90
35043;DHT22;21230;51.170;17.024;2023-05-07T05:41:01;7.60;99.90
35043;DHT22;21230;51.170;17.024;2023-05-07T05:43:28;7.70;99.90
35043;DHT22;21230;51.170;17.024;2023-05-07T05:45:56;7.70;99.90
35043;DHT22;21230;51.170;17.024;2023-05-07T05:48:21;7.80;99.90
35043;DHT22;21230;51.170;17.024;2023-05-07T05:50:48;7.80;99.90
35043;DHT22;21230;51.170;17.024;2023-05-07T05:53:13;7.80;99.90
35043;DHT22;21230;51.170;17.024;2023-05-07T05:55:39;7.80;99.90
35043;DHT22;21230;51.170;17.024;2023-05-07T05:58:05;7.90;99.90
35043;DHT22;21230;51.170;17.024;2023-05-07T06:00:31;7.80;99.90
35043;DHT22;21230;51.170;17.024;2023-05-07T06:02:57;7.70;99.90
35043;DHT22;21230;51.170;17.024;2023-05-07T06:05:23;7.70;99.90
35043;DHT22;21230;51.170;17.024;2023-05-07T06:07:48;7.70;99.90
35043;DHT22;21230;51.170;17.024;2023-05-07T06:10:14;7.80;99.90
35043;DHT22;21230;51.170;17.024;2023-05-07T06:12:40;7.90;99.90
35043;DHT22;21230;51.170;17.024;2023-05-07T06:15:07;8.00;99.90
35043;DHT22;21230;51.170;17.024;2023-05-07T06:17:34;8.00;99.90
35043;DHT22;21230;51.170;17.024;2023-05-07T06:20:02;8.10;99.90
35043;DHT22;21230;51.170;17.024;2023-05-07T06:22:27;8.10;99.90
35043;DHT22;21230;51.170;17.024;2023-05-07T06:24:53;8.10;99.90
35043;DHT22;21230;51.170;17.024;2023-05-07T06:27:19;8.20;99.90
35043;DHT22;21230;51.170;17.024;2023-05-07T06:29:44;8.10;99.90
35043;DHT22;21230;51.170;17.024;2023-05-07T06:32:13;8.10;99.90
35043;DHT22;21230;51.170;17.024;2023-05-07T06:34:39;8.20;99.90
35043;DHT22;21230;51.170;17.024;2023-05-07T06:37:05;8.10;99.90
35043;DHT22;21230;51.170;17.024;2023-05-07T06:39:31;8.10;99.90
35043;DHT22;21230;51.170;17.024;2023-05-07T06:41:56;7.90;99.90
35043;DHT22;21230;51.170;17.024;2023-05-07T06:44:22;7.80;99.90
35043;DHT22;21230;51.170;17.024;2023-05-07T06:46:48;7.80;99.90
35043;DHT22;21230;51.170;17.024;2023-05-07T06:49:13;7.90;99.90
35043;DHT22;21230;51.170;17.024;2023-05-07T06:51:39;8.00;99.90
35043;DHT22;21230;51.170;17.024;2023-05-07T06:54:05;8.00;99.90
35043;DHT22;21230;51.170;17.024;2023-05-07T06:56:31;8.00;99.90
35043;DHT22;21230;51.170;17.024;2023-05-07T06:58:57;8.00;99.90
35043;DHT22;21230;51.170;17.024;2023-05-07T07:01:22;8.00;99.90
35043;DHT22;21230;51.170;17.024;2023-05-07T07:03:48;8.00;99.90
35043;DHT22;21230;51.170;17.024;2023-05-07T07:06:14;8.00;99.90
35043;DHT22;21230;51.170;17.024;2023-05-07T07:08:39;7.90;99.90
35043;DHT22;21230;51.170;17.024;2023-05-07T07:11:05;8.00;99.90
35043;DHT22;21230;51.170;17.024;2023-05-07T07:13:31;8.00;99.90
35043;DHT22;21230;51.170;17.024;2023-05-07T07:15:57;7.90;99.90
35043;DHT22;21230;51.170;17.024;2023-05-07T07:18:22;8.00;99.90
35043;DHT22;21230;51.170;17.024;2023-05-07T07:20:48;8.00;99.90
35043;DHT22;21230;51.170;17.024;2023-05-07T07:23:14;8.10;99.90
35043;DHT22;21230;51.170;17.024;2023-05-07T07:25:39;8.10;99.90
35043;DHT22;21230;51.170;17.024;2023-05-07T07:28:05;8.30;99.90
35043;DHT22;21230;51.170;17.024;2023-05-07T07:30:31;8.30;99.90
35043;DHT22;21230;51.170;17.024;2023-05-07T07:32:57;8.40;99.90
35043;DHT22;21230;51.170;17.024;2023-05-07T07:35:28;8.50;99.90
35043;DHT22;21230;51.170;17.024;2023-05-07T07:37:53;8.50;99.90
35043;DHT22;21230;51.170;17.024;2023-05-07T07:40:19;8.50;99.90
35043;DHT22;21230;51.170;17.024;2023-05-07T07:42:45;8.40;99.90
35043;DHT22;21230;51.170;17.024;2023-05-07T07:45:10;8.40;99.90
35043;DHT22;21230;51.170;17.024;2023-05-07T07:47:36;8.30;99.90
35043;DHT22;21230;51.170;17.024;2023-05-07T07:50:02;8.20;99.90
35043;DHT22;21230;51.170;17.024;2023-05-07T07:52:28;8.20;99.90
35043;DHT22;21230;51.170;17.024;2023-05-07T07:54:57;8.20;99.90
35043;DHT22;21230;51.170;17.024;2023-05-07T07:57:26;8.20;99.90
35043;DHT22;21230;51.170;17.024;2023-05-07T07:59:52;8.20;99.90
35043;DHT22;21230;51.170;17.024;2023-05-07T08:02:17;8.20;99.90
35043;DHT22;21230;51.170;17.024;2023-05-07T08:04:43;8.20;99.90
35043;DHT22;21230;51.170;17.024;2023-05-07T08:07:09;8.20;99.90
35043;DHT22;21230;51.170;17.024;2023-05-07T08:09:35;8.20;99.90
35043;DHT22;21230;51.170;17.024;2023-05-07T08:12:01;8.10;99.90
35043;DHT22;21230;51.170;17.024;2023-05-07T08:14:27;8.10;99.90
35043;DHT22;21230;51.170;17.024;2023-05-07T08:16:53;8.10;99.90
35043;DHT22;21230;51.170;17.024;2023-05-07T08:19:19;8.20;99.90
35043;DHT22;21230;51.170;17.024;2023-05-07T08:21:45;8.30;99.90
35043;DHT22;21230;51.170;17.024;2023-05-07T08:24:15;8.30;99.90
35043;DHT22;21230;51.170;17.024;2023-05-07T08:26:41;8.40;99.90
35043;DHT22;21230;51.170;17.024;2023-05-07T08:29:07;8.40;99.90
35043;DHT22;21230;51.170;17.024;2023-05-07T08:31:33;8.50;99.90
35043;DHT22;21230;51.170;17.024;2023-05-07T08:33:58;8.40;99.90
35043;DHT22;21230;51.170;17.024;2023-05-07T08:36:24;8.40;99.90
35043;DHT22;21230;51.170;17.024;2023-05-07T08:38:51;8.40;99.90
35043;DHT22;21230;51.170;17.024;2023-05-07T08:41:16;8.30;99.90
35043;DHT22;21230;51.170;17.024;2023-05-07T08:43:42;8.20;99.90
35043;DHT22;21230;51.170;17.024;2023-05-07T08:46:12;8.20;99.90
35043;DHT22;21230;51.170;17.024;2023-05-07T08:48:45;8.20;99.90
35043;DHT22;21230;51.170;17.024;2023-05-07T08:51:13;8.20;99.90
35043;DHT22;21230;51.170;17.024;2023-05-07T08:53:42;8.20;99.90
35043;DHT22;21230;51.170;17.024;2023-05-07T08:56:08;8.20;99.90
35043;DHT22;21230;51.170;17.024;2023-05-07T08:58:34;8.20;99.90
35043;DHT22;21230;51.170;17.024;2023-05-07T09:01:03;8.20;99.90
35043;DHT22;21230;51.170;17.024;2023-05-07T09:03:32;8.30;99.90
35043;DHT22;21230;51.170;17.024;2023-05-07T09:05:57;8.40;99.90
35043;DHT22;21230;51.170;17.024;2023-05-07T09:08:29;8.40;99.90
35043;DHT22;21230;51.170;17.024;2023-05-07T09:10:55;8.40;99.90
35043;DHT22;21230;51.170;17.024;2023-05-07T09:13:21;8.50;99.90
35043;DHT22;21230;51.170;17.024;2023-05-07T09:15:46;8.50;99.90
35043;DHT22;21230;51.170;17.024;2023-05-07T09:18:12;8.40;99.90
35043;DHT22;21230;51.170;17.024;2023-05-07T09:20:39;8.40;99.90
35043;DHT22;21230;51.170;17.024;2023-05-07T09:23:05;8.20;99.90
35043;DHT22;21230;51.170;17.024;2023-05-07T09:25:42;8.10;99.90
35043;DHT22;21230;51.170;17.024;2023-05-07T09:28:08;8.20;99.90
35043;DHT22;21230;51.170;17.024;2023-05-07T09:30:35;8.30;99.90
35043;DHT22;21230;51.170;17.024;2023-05-07T09:33:02;8.40;99.90
35043;DHT22;21230;51.170;17.024;2023-05-07T09:35:33;8.40;99.90
35043;DHT22;21230;51.170;17.024;2023-05-07T09:38:01;8.50;99.90
35043;DHT22;21230;51.170;17.024;2023-05-07T09:40:33;8.50;99.90
35043;DHT22;21230;51.170;17.024;2023-05-07T09:43:08;8.60;99.90
35043;DHT22;21230;51.170;17.024;2023-05-07T09:45:34;8.60;99.90
35043;DHT22;21230;51.170;17.024;2023-05-07T09:48:01;8.80;99.90
35043;DHT22;21230;51.170;17.024;2023-05-07T09:50:36;8.80;99.90
35043;DHT22;21230;51.170;17.024;2023-05-07T09:53:05;8.90;99.90
35043;DHT22;21230;51.170;17.024;2023-05-07T09:55:32;9.10;99.90
35043;DHT22;21230;51.170;17.024;2023-05-07T09:57:57;9.10;99.90
35043;DHT22;21230;51.170;17.024;2023-05-07T10:00:24;9.10;99.90
35043;DHT22;21230;51.170;17.024;2023-05-07T10:02:54;9.00;99.90
35043;DHT22;21230;51.170;17.024;2023-05-07T10:05:21;9.20;99.90
35043;DHT22;21230;51.170;17.024;2023-05-07T10:07:48;9.30;99.90
35043;DHT22;21230;51.170;17.024;2023-05-07T10:10:14;9.40;99.90
35043;DHT22;21230;51.170;17.024;2023-05-07T10:12:41;9.40;99.90
35043;DHT22;21230;51.170;17.024;2023-05-07T10:15:10;9.40;99.90
35043;DHT22;21230;51.170;17.024;2023-05-07T10:17:36;9.30;99.90
35043;DHT22;21230;51.170;17.024;2023-05-07T10:20:05;9.40;99.90
35043;DHT22;21230;51.170;17.024;2023-05-07T10:22:37;9.40;99.90
35043;DHT22;21230;51.170;17.024;2023-05-07T10:25:04;9.50;99.90
35043;DHT22;21230;51.170;17.024;2023-05-07T10:27:33;9.60;99.90
35043;DHT22;21230;51.170;17.024;2023-05-07T10:32:55;9.70;99.90
35043;DHT22;21230;51.170;17.024;2023-05-07T10:35:24;9.90;99.90
35043;DHT22;21230;51.170;17.024;2023-05-07T10:37:51;9.80;99.90
35043;DHT22;21230;51.170;17.024;2023-05-07T10:40:20;9.70;99.90
35043;DHT22;21230;51.170;17.024;2023-05-07T10:43:01;9.70;99.90
35043;DHT22;21230;51.170;17.024;2023-05-07T10:45:28;9.70;99.90
35043;DHT22;21230;51.170;17.024;2023-05-07T10:48:27;9.70;99.90
35043;DHT22;21230;51.170;17.024;2023-05-07T10:50:46;9.80;99.90
35043;DHT22;21230;51.170;17.024;2023-05-07T10:53:32;9.80;99.90
35043;DHT22;21230;51.170;17.024;2023-05-07T10:58:42;9.90;99.90
35043;DHT22;21230;51.170;17.024;2023-05-07T11:01:07;9.80;99.90
35043;DHT22;21230;51.170;17.024;2023-05-07T11:03:33;9.90;99.90
35043;DHT22;21230;51.170;17.024;2023-05-07T11:06:14;9.80;99.90
35043;DHT22;21230;51.170;17.024;2023-05-07T11:11:18;9.90;99.90
35043;DHT22;21230;51.170;17.024;2023-05-07T11:13:45;9.90;99.90
35043;DHT22;21230;51.170;17.024;2023-05-07T11:16:24;9.90;99.90
35043;DHT22;21230;51.170;17.024;2023-05-07T11:18:50;9.80;99.90
35043;DHT22;21230;51.170;17.024;2023-05-07T11:21:32;9.80;99.90
35043;DHT22;21230;51.170;17.024;2023-05-07T11:23:58;9.80;99.90
35043;DHT22;21230;51.170;17.024;2023-05-07T11:26:24;9.90;99.90
35043;DHT22;21230;51.170;17.024;2023-05-07T11:28:50;10.00;99.90
35043;DHT22;21230;51.170;17.024;2023-05-07T11:31:19;10.10;99.90
35043;DHT22;21230;51.170;17.024;2023-05-07T11:33:45;10.10;99.90
35043;DHT22;21230;51.170;17.024;2023-05-07T11:36:11;10.20;99.90
35043;DHT22;21230;51.170;17.024;2023-05-07T11:38:37;10.20;99.90
35043;DHT22;21230;51.170;17.024;2023-05-07T11:41:04;10.20;99.90
35043;DHT22;21230;51.170;17.024;2023-05-07T11:43:32;10.20;99.90
35043;DHT22;21230;51.170;17.024;2023-05-07T11:46:05;10.30;99.90
35043;DHT22;21230;51.170;17.024;2023-05-07T11:48:31;10.40;99.90
35043;DHT22;21230;51.170;17.024;2023-05-07T11:51:01;10.40;99.90
35043;DHT22;21230;51.170;17.024;2023-05-07T11:53:37;10.40;99.90
35043;DHT22;21230;51.170;17.024;2023-05-07T11:56:13;10.30;99.90
35043;DHT22;21230;51.170;17.024;2023-05-07T11:58:49;10.30;99.90
35043;DHT22;21230;51.170;17.024;2023-05-07T12:01:16;10.40;99.90
35043;DHT22;21230;51.170;17.024;2023-05-07T12:03:43;10.50;99.90
35043;DHT22;21230;51.170;17.024;2023-05-07T12:06:10;10.70;99.90
35043;DHT22;21230;51.170;17.024;2023-05-07T12:08:37;10.80;99.90
35043;DHT22;21230;51.170;17.024;2023-05-07T12:11:07;10.80;99.90
35043;DHT22;21230;51.170;17.024;2023-05-07T12:13:33;10.70;99.90
35043;DHT22;21230;51.170;17.024;2023-05-07T12:15:59;10.70;99.90
35043;DHT22;21230;51.170;17.024;2023-05-07T12:18:28;10.60;99.90
35043;DHT22;21230;51.170;17.024;2023-05-07T12:20:54;10.60;99.90
35043;DHT22;21230;51.170;17.024;2023-05-07T12:23:21;10.60;99.90
35043;DHT22;21230;51.170;17.024;2023-05-07T12:26:02;10.60;99.90
35043;DHT22;21230;51.170;17.024;2023-05-07T12:28:40;10.70;99.90
35043;DHT22;21230;51.170;17.024;2023-05-07T12:31:06;10.70;99.90
35043;DHT22;21230;51.170;17.024;2023-05-07T12:33:35;10.80;99.90
35043;DHT22;21230;51.170;17.024;2023-05-07T12:36:05;10.70;99.90
35043;DHT22;21230;51.170;17.024;2023-05-07T12:38:36;10.70;99.90
35043;DHT22;21230;51.170;17.024;2023-05-07T12:41:02;10.60;99.90
35043;DHT22;21230;51.170;17.024;2023-05-07T12:43:28;10.50;99.90
35043;DHT22;21230;51.170;17.024;2023-05-07T12:45:55;10.40;99.90
35043;DHT22;21230;51.170;17.024;2023-05-07T12:48:22;10.40;99.90
35043;DHT22;21230;51.170;17.024;2023-05-07T12:50:51;10.40;99.90
35043;DHT22;21230;51.170;17.024;2023-05-07T12:53:19;10.50;99.90
35043;DHT22;21230;51.170;17.024;2023-05-07T12:55:46;10.60;99.90
35043;DHT22;21230;51.170;17.024;2023-05-07T12:58:19;10.60;99.90
35043;DHT22;21230;51.170;17.024;2023-05-07T13:00:47;10.70;99.90
35043;DHT22;21230;51.170;17.024;2023-05-07T13:03:15;10.60;99.90
35043;DHT22;21230;51.170;17.024;2023-05-07T13:05:45;10.60;99.90
35043;DHT22;21230;51.170;17.024;2023-05-07T13:08:11;10.50;99.90
35043;DHT22;21230;51.170;17.024;2023-05-07T13:10:37;10.40;99.90
35043;DHT22;21230;51.170;17.024;2023-05-07T13:13:02;10.40;99.90
35043;DHT22;21230;51.170;17.024;2023-05-07T13:18:26;10.40;99.90
35043;DHT22;21230;51.170;17.024;2023-05-07T13:20:54;10.40;99.90
35043;DHT22;21230;51.170;17.024;2023-05-07T13:23:20;10.40;99.90
35043;DHT22;21230;51.170;17.024;2023-05-07T13:25:46;10.30;99.90
35043;DHT22;21230;51.170;17.024;2023-05-07T13:28:11;10.30;99.90
35043;DHT22;21230;51.170;17.024;2023-05-07T13:30:40;10.20;99.90
35043;DHT22;21230;51.170;17.024;2023-05-07T13:33:08;10.20;99.90
35043;DHT22;21230;51.170;17.024;2023-05-07T13:35:34;10.00;99.90
35043;DHT22;21230;51.170;17.024;2023-05-07T13:37:59;10.00;99.90
35043;DHT22;21230;51.170;17.024;2023-05-07T13:40:28;10.00;99.90
35043;DHT22;21230;51.170;17.024;2023-05-07T13:42:57;10.10;99.90
35043;DHT22;21230;51.170;17.024;2023-05-07T13:45:24;10.20;99.90
35043;DHT22;21230;51.170;17.024;2023-05-07T13:47:54;10.20;99.90
35043;DHT22;21230;51.170;17.024;2023-05-07T13:50:20;10.10;99.90
35043;DHT22;21230;51.170;17.024;2023-05-07T13:52:46;10.10;99.90
35043;DHT22;21230;51.170;17.024;2023-05-07T13:55:19;10.10;99.90
35043;DHT22;21230;51.170;17.024;2023-05-07T13:57:45;10.00;99.90
35043;DHT22;21230;51.170;17.024;2023-05-07T14:00:11;10.00;99.90
35043;DHT22;21230;51.170;17.024;2023-05-07T14:02:38;10.10;99.90
35043;DHT22;21230;51.170;17.024;2023-05-07T14:05:05;10.10;99.90
35043;DHT22;21230;51.170;17.024;2023-05-07T14:07:32;10.10;99.90
35043;DHT22;21230;51.170;17.024;2023-05-07T14:09:59;10.20;99.90
35043;DHT22;21230;51.170;17.024;2023-05-07T14:12:24;10.20;99.90
35043;DHT22;21230;51.170;17.024;2023-05-07T14:14:50;10.10;99.90
35043;DHT22;21230;51.170;17.024;2023-05-07T14:17:16;10.10;99.90
35043;DHT22;21230;51.170;17.024;2023-05-07T14:19:42;10.10;99.90
35043;DHT22;21230;51.170;17.024;2023-05-07T14:22:08;10.10;99.90
35043;DHT22;21230;51.170;17.024;2023-05-07T14:24:33;10.10;99.90
35043;DHT22;21230;51.170;17.024;2023-05-07T14:26:59;10.00;99.90
35043;DHT22;21230;51.170;17.024;2023-05-07T14:29:25;10.00;99.90
35043;DHT22;21230;51.170;17.024;2023-05-07T14:31:51;10.00;99.90
35043;DHT22;21230;51.170;17.024;2023-05-07T14:34:16;10.10;99.90
35043;DHT22;21230;51.170;17.024;2023-05-07T14:36:42;10.10;99.90
35043;DHT22;21230;51.170;17.024;2023-05-07T14:39:09;10.10;99.90
35043;DHT22;21230;51.170;17.024;2023-05-07T14:41:35;10.00;99.90
35043;DHT22;21230;51.170;17.024;2023-05-07T14:44:00;10.00;99.90
35043;DHT22;21230;51.170;17.024;2023-05-07T14:46:26;10.00;99.90
35043;DHT22;21230;51.170;17.024;2023-05-07T14:48:52;10.00;99.90
35043;DHT22;21230;51.170;17.024;2023-05-07T14:51:18;10.00;99.90
35043;DHT22;21230;51.170;17.024;2023-05-07T14:53:44;10.10;99.90
35043;DHT22;21230;51.170;17.024;2023-05-07T14:56:09;10.00;99.90
35043;DHT22;21230;51.170;17.024;2023-05-07T14:58:35;10.00;99.90
35043;DHT22;21230;51.170;17.024;2023-05-07T15:01:01;10.10;99.90
35043;DHT22;21230;51.170;17.024;2023-05-07T15:03:27;10.10;99.90
35043;DHT22;21230;51.170;17.024;2023-05-07T15:05:52;10.10;99.90
35043;DHT22;21230;51.170;17.024;2023-05-07T15:08:18;10.10;99.90
35043;DHT22;21230;51.170;17.024;2023-05-07T15:10:44;10.00;99.90
35043;DHT22;21230;51.170;17.024;2023-05-07T15:13:10;10.10;99.90
35043;DHT22;21230;51.170;17.024;2023-05-07T15:15:36;10.10;99.90
35043;DHT22;21230;51.170;17.024;2023-05-07T15:18:02;10.10;99.90
35043;DHT22;21230;51.170;17.024;2023-05-07T15:20:27;10.10;99.90
35043;DHT22;21230;51.170;17.024;2023-05-07T15:22:53;10.00;99.90
35043;DHT22;21230;51.170;17.024;2023-05-07T15:25:19;10.10;99.90
35043;DHT22;21230;51.170;17.024;2023-05-07T15:27:45;10.10;99.90
35043;DHT22;21230;51.170;17.024;2023-05-07T15:30:10;10.10;99.90
35043;DHT22;21230;51.170;17.024;2023-05-07T15:32:37;10.10;99.90
35043;DHT22;21230;51.170;17.024;2023-05-07T15:35:04;10.10;99.90
35043;DHT22;21230;51.170;17.024;2023-05-07T15:37:33;10.20;99.90
35043;DHT22;21230;51.170;17.024;2023-05-07T15:39:59;10.20;99.90